Time;durP1;ratioP1;P1;durP2;ratioP2;P2;SDS_P1;SDS_P2;PMS_P1;PMS_P2;Temp;Humidity;BMP_temperature;BMP_pressure;BME280_temperature;BME280_humidity;BME280_pressure;Samples;Min_cycle;Max_cycle;Signal;HPM_P1;HPM_P2
2022/10/04 07:46:19;;;;;;;4.65;1.33;;;18.90;99.90;;;;;;6258485;22;20211;-71
2022/10/04 07:48:48;;;;;;;3.03;1.40;;;18.60;99.90;;;;;;6277094;22;20186;-75
2022/10/04 07:51:23;;;;;;;3.88;1.77;;;18.20;99.90;;;;;;6276888;22;20669;-74
2022/10/04 07:53:55;;;;;;;2.28;1.17;;;18.00;99.90;;;;;;6276315;22;20200;-74
2022/10/04 07:56:27;;;;;;;3.67;1.20;;;17.90;99.90;;;;;;6277081;22;20209;-74
2022/10/04 07:59:10;;;;;;;2.88;1.23;;;18.00;99.90;;;;;;6277445;22;20209;-74
2022/10/04 08:01:46;;;;;;;3.30;1.67;;;18.30;99.90;;;;;;6276686;22;20670;-74
2022/10/04 08:04:27;;;;;;;5.53;1.58;;;18.80;99.90;;;;;;6276687;22;20638;-74
2022/10/04 08:06:58;;;;;;;4.38;1.38;;;19.10;99.90;;;;;;6277303;22;20179;-73
2022/10/04 08:09:41;;;;;;;4.15;1.25;;;19.20;99.90;;;;;;6276457;22;20210;-75
2022/10/04 08:12:17;;;;;;;1.65;1.17;;;19.20;99.90;;;;;;6276714;22;20273;-76
2022/10/04 08:15:27;;;;;;;3.15;1.80;;;19.30;99.90;;;;;;6276420;22;20174;-75
2022/10/04 08:18:01;;;;;;;6.32;2.03;;;18.70;99.90;;;;;;6277261;22;20197;-72
2022/10/04 08:20:35;;;;;;;7.03;2.13;;;18.70;99.90;;;;;;6276814;22;20183;-73
2022/10/04 08:23:17;;;;;;;6.95;1.75;;;18.90;99.90;;;;;;6276905;22;20194;-72
2022/10/04 08:25:52;;;;;;;6.72;1.70;;;18.80;99.90;;;;;;6276491;22;20635;-73
2022/10/04 08:31:27;;;;;;;2.85;1.30;;;18.10;99.90;;;;;;6276869;22;20554;-73
2022/10/04 08:34:11;;;;;;;1.77;1.40;;;17.70;99.90;;;;;;6276717;22;20248;-73
2022/10/04 08:36:50;;;;;;;2.55;1.30;;;17.50;99.90;;;;;;6276496;22;20213;-73
2022/10/04 08:39:34;;;;;;;4.43;1.70;;;17.40;99.90;;;;;;6276469;22;20189;-73
2022/10/04 08:42:25;;;;;;;2.95;1.50;;;17.50;99.90;;;;;;6276213;22;20181;-73
2022/10/04 08:45:20;;;;;;;2.60;1.42;;;17.60;99.90;;;;;;6277035;22;20559;-75
2022/10/04 08:48:18;;;;;;;3.25;1.58;;;17.90;99.90;;;;;;6276344;22;20183;-75
2022/10/04 08:51:16;;;;;;;5.00;1.48;;;18.20;99.90;;;;;;6276867;22;20202;-76
2022/10/04 08:54:18;;;;;;;3.33;1.67;;;18.40;99.90;;;;;;6276885;22;20206;-75
2022/10/04 08:57:11;;;;;;;3.13;1.40;;;18.00;99.90;;;;;;6272603;22;20206;-80
2022/10/04 09:00:11;;;;;;;2.75;1.65;;;17.50;99.90;;;;;;6273081;22;20258;-75
2022/10/04 09:03:20;;;;;;;1.80;1.42;;;17.40;99.90;;;;;;6274784;22;20202;-74
2022/10/04 09:06:16;;;;;;;8.02;2.00;;;17.30;99.90;;;;;;6176509;22;20182;-70
2022/10/04 09:09:29;;;;;;;4.47;1.90;;;17.00;99.90;;;;;;6275133;22;20558;-78
2022/10/04 09:12:09;;;;;;;3.22;1.45;;;17.00;99.90;;;;;;6201937;22;20181;-77
2022/10/04 09:15:04;;;;;;;8.50;1.50;;;16.80;99.90;;;;;;6281121;22;20178;-73
2022/10/04 09:17:45;;;;;;;4.57;1.83;;;16.70;99.90;;;;;;6275066;22;20185;-75
2022/10/04 09:20:22;;;;;;;4.23;1.67;;;16.70;99.90;;;;;;6273643;22;20221;-77
2022/10/04 09:22:56;;;;;;;2.40;1.15;;;16.50;99.90;;;;;;6275295;22;20284;-77
2022/10/04 09:25:48;;;;;;;4.50;1.50;;;16.50;99.90;;;;;;6274853;22;20185;-77
2022/10/04 09:28:47;;;;;;;2.43;1.40;;;16.30;99.90;;;;;;6274198;22;20237;-79
2022/10/04 09:31:32;;;;;;;2.70;1.40;;;16.10;99.90;;;;;;6274957;22;20179;-77
2022/10/04 09:34:28;;;;;;;4.60;1.60;;;16.10;99.90;;;;;;6274590;22;20671;-80
2022/10/04 09:37:17;;;;;;;3.33;1.60;;;16.00;99.90;;;;;;6274178;22;20663;-79
2022/10/04 09:40:06;;;;;;;4.67;1.60;;;16.10;99.90;;;;;;6274972;22;20178;-78
2022/10/04 09:42:53;;;;;;;2.47;1.37;;;16.20;99.90;;;;;;6276089;22;20194;-78
2022/10/04 09:45:52;;;;;;;3.10;1.40;;;16.30;99.90;;;;;;6276012;22;20261;-76
2022/10/04 09:48:35;;;;;;;2.33;1.40;;;16.50;99.90;;;;;;6275616;22;20182;-73
2022/10/04 09:51:32;;;;;;;3.70;1.40;;;16.50;99.90;;;;;;6276415;22;20175;-75
2022/10/04 09:54:11;;;;;;;4.73;1.70;;;16.60;99.90;;;;;;6264980;22;20671;-72
2022/10/04 09:56:53;;;;;;;5.03;1.30;;;16.70;99.90;;;;;;6275732;22;20202;-73
2022/10/04 09:59:55;;;;;;;6.43;1.53;;;16.70;99.90;;;;;;6276487;22;20175;-73
2022/10/04 10:02:53;;;;;;;4.13;1.20;;;16.70;99.90;;;;;;6257178;22;20273;-73
2022/10/04 10:05:30;;;;;;;3.70;1.43;;;16.70;99.90;;;;;;6272128;22;20653;-73
2022/10/04 10:08:08;;;;;;;1.97;1.40;;;16.80;99.90;;;;;;6276018;22;20178;-73
2022/10/04 10:13:44;;;;;;;3.60;1.10;;;16.60;99.90;;;;;;6276249;22;20197;-72
2022/10/04 10:16:24;;;;;;;4.77;1.70;;;16.60;99.90;;;;;;6275974;22;20209;-72
2022/10/04 10:19:05;;;;;;;2.10;1.50;;;16.80;99.90;;;;;;6276520;22;20182;-72
2022/10/04 10:21:50;;;;;;;3.13;1.37;;;17.10;99.90;;;;;;6276174;22;20179;-71
2022/10/04 10:24:36;;;;;;;3.43;1.60;;;17.30;99.90;;;;;;6276586;22;20175;-73
2022/10/04 10:27:20;;;;;;;3.00;1.27;;;17.40;99.90;;;;;;6276501;22;20179;-73
2022/10/04 10:30:20;;;;;;;3.17;1.50;;;17.30;99.90;;;;;;6276583;22;20262;-72
2022/10/04 10:33:22;;;;;;;4.20;1.30;;;17.40;99.90;;;;;;6278217;22;20194;-71
2022/10/04 10:36:22;;;;;;;2.10;1.10;;;17.40;99.90;;;;;;6278036;22;20198;-72
2022/10/04 10:39:03;;;;;;;1.97;1.30;;;17.50;99.90;;;;;;6226846;22;20179;-71
2022/10/04 10:41:50;;;;;;;2.97;1.10;;;17.60;99.90;;;;;;6278571;22;20189;-70
2022/10/04 10:44:33;;;;;;;2.08;1.20;;;17.70;99.90;;;;;;6278199;22;20174;-71
2022/10/04 10:47:17;;;;;;;2.90;1.10;;;17.70;99.90;;;;;;6277765;22;20186;-71
2022/10/04 10:49:56;;;;;;;3.35;1.27;;;17.60;99.90;;;;;;6278485;22;20178;-71
2022/10/04 10:53:11;;;;;;;4.10;1.50;;;17.50;99.90;;;;;;6278370;22;20518;-73
2022/10/04 10:56:07;;;;;;;2.80;1.50;;;17.50;99.90;;;;;;6277726;22;20203;-72
2022/10/04 10:59:12;;;;;;;6.00;1.30;;;17.50;99.90;;;;;;6278431;22;20179;-72
2022/10/04 11:02:09;;;;;;;2.53;1.37;;;17.50;99.90;;;;;;6277997;22;20178;-72
2022/10/04 11:04:53;;;;;;;2.80;1.50;;;17.60;99.90;;;;;;6278262;22;20175;-72
2022/10/04 11:07:50;;;;;;;2.80;1.40;;;17.70;99.90;;;;;;6277796;22;20240;-73
2022/10/04 11:10:52;;;;;;;2.60;1.13;;;17.80;99.90;;;;;;6252475;22;20175;-72
2022/10/04 11:13:47;;;;;;;3.53;1.53;;;17.70;99.90;;;;;;6229697;22;20205;-72
2022/10/04 11:16:46;;;;;;;7.07;1.60;;;17.60;99.90;;;;;;6257288;22;20210;-73
2022/10/04 11:19:45;;;;;;;4.23;1.17;;;17.50;99.90;;;;;;6277679;22;20542;-73
2022/10/04 11:22:44;;;;;;;3.63;1.30;;;17.60;99.90;;;;;;6277416;22;20260;-72
2022/10/04 11:25:56;;;;;;;2.40;1.10;;;17.70;99.90;;;;;;6278007;22;20181;-73
2022/10/04 11:28:30;;;;;;;1.73;1.03;;;17.80;99.90;;;;;;6154266;23;20217;-72
2022/10/04 11:31:32;;;;;;;2.10;1.20;;;17.80;99.90;;;;;;6154404;23;20190;-70
2022/10/04 11:34:25;;;;;;;2.30;1.13;;;18.00;99.90;;;;;;6246178;22;20256;-72
2022/10/04 11:37:11;;;;;;;6.90;1.37;;;18.20;99.90;;;;;;6277633;22;20202;-72
2022/10/04 11:39:58;;;;;;;2.85;1.30;;;18.10;99.90;;;;;;6277976;22;20228;-73
2022/10/04 11:42:37;;;;;;;3.10;1.10;;;18.20;99.90;;;;;;6277388;22;20194;-73
2022/10/04 11:45:32;;;;;;;1.98;1.10;;;18.20;99.90;;;;;;6277948;22;20499;-73
2022/10/04 11:48:12;;;;;;;3.23;1.40;;;18.10;99.90;;;;;;6276107;22;20186;-73
2022/10/04 11:51:02;;;;;;;2.45;1.10;;;18.20;99.90;;;;;;6277733;22;20650;-73
2022/10/04 11:54:06;;;;;;;1.33;0.82;;;18.40;99.90;;;;;;6277341;22;20214;-73
2022/10/04 11:56:43;;;;;;;1.92;0.95;;;18.60;99.90;;;;;;6277086;22;20209;-73
2022/10/04 11:59:26;;;;;;;2.05;1.10;;;18.60;99.90;;;;;;6277850;22;20174;-72
2022/10/04 12:02:31;;;;;;;2.97;1.10;;;18.70;99.90;;;;;;6277089;22;20179;-72
2022/10/04 12:05:45;;;;;;;3.03;0.98;;;18.80;99.90;;;;;;6277595;22;20210;-73
2022/10/04 12:08:26;;;;;;;2.72;0.90;;;18.80;99.90;;;;;;6277159;22;20259;-72
2022/10/04 12:14:28;;;;;;;1.33;0.90;;;18.80;99.90;;;;;;6224967;22;20182;-72
2022/10/04 12:17:19;;;;;;;3.22;1.05;;;18.80;99.90;;;;;;6276987;22;20203;-72
2022/10/04 12:20:00;;;;;;;2.88;1.02;;;18.80;99.90;;;;;;6277211;22;20179;-72
2022/10/04 12:23:04;;;;;;;1.67;0.80;;;18.70;99.90;;;;;;6276590;22;20204;-72
2022/10/04 12:25:52;;;;;;;1.77;1.00;;;18.70;99.90;;;;;;6277060;22;20178;-73
2022/10/04 12:28:55;;;;;;;3.05;1.00;;;18.80;99.90;;;;;;6277470;22;20209;-72
2022/10/04 12:31:28;;;;;;;1.48;1.05;;;18.90;99.90;;;;;;6251038;22;20649;-72
2022/10/04 12:34:03;;;;;;;1.45;0.88;;;18.90;99.90;;;;;;6277477;22;20201;-72
2022/10/04 12:36:52;;;;;;;4.57;1.27;;;18.80;99.90;;;;;;6277386;22;20206;-72
2022/10/04 12:39:44;;;;;;;3.20;1.15;;;18.70;99.90;;;;;;6277405;22;20181;-73
2022/10/04 12:42:22;;;;;;;1.73;1.00;;;18.60;99.90;;;;;;6277167;22;20201;-72
2022/10/04 12:45:03;;;;;;;2.22;1.10;;;18.60;99.90;;;;;;6277118;22;20469;-72
2022/10/04 12:47:50;;;;;;;4.18;1.15;;;18.50;99.90;;;;;;6276670;22;20530;-72
2022/10/04 12:50:29;;;;;;;4.07;1.20;;;18.60;99.90;;;;;;6277358;22;20182;-72
2022/10/04 12:53:09;;;;;;;2.33;1.33;;;18.50;99.90;;;;;;6277284;22;20573;-71
2022/10/04 12:56:04;;;;;;;1.88;1.10;;;18.50;99.90;;;;;;6277101;22;20179;-72
2022/10/04 12:58:46;;;;;;;3.22;1.13;;;18.50;99.90;;;;;;6277178;22;20185;-73
2022/10/04 13:01:21;;;;;;;2.15;0.98;;;18.60;99.90;;;;;;6276458;22;20481;-72
2022/10/04 13:04:18;;;;;;;2.50;1.27;;;18.60;99.90;;;;;;6276784;22;20194;-72
2022/10/04 13:06:58;;;;;;;2.13;1.00;;;18.60;99.90;;;;;;6277064;22;20246;-72
2022/10/04 13:09:40;;;;;;;2.85;1.00;;;18.60;99.90;;;;;;6276949;22;20178;-72
2022/10/04 13:12:24;;;;;;;2.50;0.98;;;18.60;99.90;;;;;;6277048;22;20194;-72
2022/10/04 13:15:18;;;;;;;1.83;1.10;;;18.40;99.90;;;;;;6277158;22;20174;-73
2022/10/04 13:17:51;;;;;;;2.58;1.25;;;18.40;99.90;;;;;;6276895;22;20263;-74
2022/10/04 13:20:37;;;;;;;3.50;1.00;;;18.50;99.90;;;;;;6276498;22;20234;-72
2022/10/04 13:23:13;;;;;;;1.93;1.10;;;18.50;99.90;;;;;;6276785;22;20194;-71
2022/10/04 13:25:57;;;;;;;1.70;1.10;;;18.60;99.90;;;;;;6276963;22;20240;-72
2022/10/04 13:28:34;;;;;;;2.78;1.25;;;18.60;99.90;;;;;;6276495;22;20224;-70
2022/10/04 13:31:06;;;;;;;1.85;1.10;;;18.60;99.90;;;;;;6276884;22;20174;-72
2022/10/04 13:33:43;;;;;;;2.80;1.48;;;18.60;99.90;;;;;;6276261;22;20194;-72
2022/10/04 13:36:18;;;;;;;3.20;1.10;;;18.60;99.90;;;;;;6276710;22;20272;-71
2022/10/04 13:39:17;;;;;;;3.55;1.73;;;18.70;99.90;;;;;;6276100;22;20627;-72
2022/10/04 13:42:06;;;;;;;2.85;1.40;;;18.80;99.90;;;;;;6250550;22;20623;-71
2022/10/04 13:44:59;;;;;;;1.17;0.98;;;18.80;99.90;;;;;;6276729;22;20175;-72
2022/10/04 13:47:45;;;;;;;2.67;1.00;;;18.80;99.90;;;;;;6276351;22;20182;-72
2022/10/04 13:50:37;;;;;;;2.75;1.10;;;18.90;99.90;;;;;;6276615;22;20477;-71
2022/10/04 13:59:04;;;;;;;3.13;1.50;;;19.00;99.90;;;;;;6275856;22;20211;-72
2022/10/04 14:02:12;;;;;;;2.10;1.33;;;19.00;99.90;;;;;;6276393;22;20189;-72
2022/10/04 14:05:30;;;;;;;3.13;1.00;;;19.00;99.90;;;;;;6217800;22;20523;-72
2022/10/04 14:08:21;;;;;;;2.80;1.10;;;18.90;99.90;;;;;;6155212;23;20216;-72
2022/10/04 14:11:20;;;;;;;1.73;0.90;;;19.00;99.90;;;;;;6155056;23;20182;-72
2022/10/04 14:14:19;;;;;;;2.60;1.00;;;18.90;99.90;;;;;;6225318;22;20493;-72
2022/10/04 14:17:22;;;;;;;2.20;1.13;;;18.80;99.90;;;;;;6226467;22;20214;-72
2022/10/04 14:20:23;;;;;;;2.58;1.25;;;18.80;99.90;;;;;;6277222;22;20174;-71
2022/10/04 14:23:29;;;;;;;3.10;1.15;;;18.70;99.90;;;;;;6278690;22;20197;-72
2022/10/04 14:26:19;;;;;;;3.88;1.30;;;18.60;99.90;;;;;;6217621;22;20183;-72
2022/10/04 14:29:14;;;;;;;1.65;1.00;;;18.60;99.90;;;;;;6278328;22;20679;-72
2022/10/04 14:32:08;;;;;;;2.58;1.60;;;18.70;99.90;;;;;;6278302;22;20189;-71
2022/10/04 14:34:57;;;;;;;1.15;0.93;;;18.80;99.90;;;;;;6223299;22;20185;-72
2022/10/04 14:38:07;;;;;;;1.73;1.00;;;18.80;99.90;;;;;;6269768;22;20209;-72
2022/10/04 14:41:06;;;;;;;3.88;1.30;;;18.70;99.90;;;;;;6278180;22;20179;-71
2022/10/04 14:44:01;;;;;;;2.10;1.10;;;18.70;99.90;;;;;;6226599;22;20198;-72
2022/10/04 14:46:44;;;;;;;2.50;1.20;;;18.70;99.90;;;;;;6278133;22;20183;-73
2022/10/04 14:49:23;;;;;;;1.70;1.20;;;18.60;99.90;;;;;;6278457;22;20213;-70
2022/10/04 14:52:08;;;;;;;1.80;1.00;;;18.60;99.90;;;;;;6278491;22;20270;-71
2022/10/04 14:54:48;;;;;;;3.25;1.30;;;18.60;99.90;;;;;;6278189;22;20178;-71
2022/10/04 14:57:21;;;;;;;3.25;1.23;;;18.50;99.90;;;;;;6278149;22;20203;-70
2022/10/04 15:00:18;;;;;;;1.20;0.90;;;18.40;99.90;;;;;;6278421;22;20182;-71
2022/10/04 15:02:56;;;;;;;1.83;1.02;;;18.40;99.90;;;;;;6275381;22;20202;-71
2022/10/04 15:05:42;;;;;;;1.93;1.20;;;18.30;99.90;;;;;;6277728;22;20639;-70
2022/10/04 15:08:37;;;;;;;1.52;1.20;;;18.20;99.90;;;;;;6278257;22;20179;-71
2022/10/04 15:11:07;;;;;;;2.28;1.25;;;18.20;99.90;;;;;;6278082;22;20186;-72
2022/10/04 15:13:38;;;;;;;1.80;1.17;;;18.30;99.90;;;;;;6277968;22;20195;-72
2022/10/04 15:16:20;;;;;;;2.42;1.35;;;18.30;99.90;;;;;;6278310;22;20280;-72
2022/10/04 15:18:53;;;;;;;2.75;1.10;;;18.40;99.90;;;;;;6277687;22;20202;-72
2022/10/04 15:21:51;;;;;;;1.98;1.02;;;18.40;99.90;;;;;;6277997;22;20175;-72
2022/10/04 15:24:28;;;;;;;2.03;0.90;;;18.40;99.90;;;;;;6276786;22;20178;-71
2022/10/04 15:27:37;;;;;;;2.80;1.30;;;18.40;99.90;;;;;;6277855;22;20174;-71
2022/10/04 15:30:18;;;;;;;1.08;0.90;;;18.40;99.90;;;;;;6252769;22;20175;-72
2022/10/04 15:32:56;;;;;;;1.15;1.00;;;18.30;99.90;;;;;;6277820;22;20199;-72
2022/10/04 15:35:30;;;;;;;1.55;1.08;;;18.30;99.90;;;;;;6277622;22;20178;-73
2022/10/04 15:38:02;;;;;;;2.40;1.10;;;18.30;99.90;;;;;;6277356;22;20674;-72
2022/10/04 15:40:41;;;;;;;1.25;1.05;;;18.30;99.90;;;;;;6278021;22;20261;-72
2022/10/04 15:43:24;;;;;;;2.08;1.58;;;18.30;99.90;;;;;;6277873;22;20195;-72
2022/10/04 15:46:32;;;;;;;3.72;1.20;;;18.30;99.90;;;;;;6278047;22;20193;-72
2022/10/04 15:49:23;;;;;;;2.03;1.02;;;18.30;99.90;;;;;;6277871;22;20179;-71
2022/10/04 15:52:06;;;;;;;1.95;1.30;;;18.20;99.90;;;;;;6277880;22;20182;-71
2022/10/04 15:55:16;;;;;;;3.05;1.30;;;18.20;99.90;;;;;;6277674;22;20214;-72
2022/10/04 15:58:15;;;;;;;3.00;1.50;;;18.20;99.90;;;;;;6277827;22;20207;-72
2022/10/04 16:00:53;;;;;;;2.72;1.20;;;18.20;99.90;;;;;;6277824;22;20178;-72
2022/10/04 16:03:33;;;;;;;2.83;1.60;;;18.20;99.90;;;;;;6277334;22;20195;-72
2022/10/04 16:06:07;;;;;;;1.30;1.17;;;18.10;99.90;;;;;;6277304;22;20670;-72
2022/10/04 16:09:12;;;;;;;1.77;1.15;;;18.20;99.90;;;;;;6277124;22;20499;-72
2022/10/04 16:12:07;;;;;;;1.40;1.30;;;18.10;99.90;;;;;;6274331;22;20181;-72
2022/10/04 16:14:55;;;;;;;1.67;1.05;;;18.10;99.90;;;;;;6277072;22;20181;-72
2022/10/04 16:17:44;;;;;;;1.75;1.10;;;18.10;99.90;;;;;;6253452;22;20202;-71
2022/10/04 16:20:39;;;;;;;2.97;1.45;;;18.20;99.90;;;;;;6277521;22;20234;-71
2022/10/04 16:23:28;;;;;;;2.00;1.10;;;18.10;99.90;;;;;;6277261;22;20253;-73
2022/10/04 16:25:56;;;;;;;3.65;1.00;;;18.00;99.90;;;;;;6276928;22;20181;-73
2022/10/04 16:28:38;;;;;;;1.83;1.15;;;17.90;99.90;;;;;;6276692;22;20325;-72
2022/10/04 16:31:43;;;;;;;2.90;1.30;;;17.70;99.90;;;;;;6276370;22;20666;-75
2022/10/04 16:34:26;;;;;;;2.88;1.30;;;17.70;99.90;;;;;;6258642;22;20204;-76
2022/10/04 16:36:58;;;;;;;1.27;1.00;;;17.70;99.90;;;;;;6276748;22;20500;-75
2022/10/04 16:42:27;;;;;;;1.60;1.13;;;17.50;99.90;;;;;;6276494;22;20201;-74
2022/10/04 16:45:00;;;;;;;2.88;1.40;;;17.50;99.90;;;;;;6277029;22;20266;-76
2022/10/04 16:47:31;;;;;;;3.78;1.80;;;17.40;99.90;;;;;;6277999;22;20183;-75
2022/10/04 16:50:03;;;;;;;4.63;1.88;;;17.30;99.90;;;;;;6271595;22;20179;-75
2022/10/04 16:52:47;;;;;;;3.70;1.60;;;17.20;99.90;;;;;;6275517;22;20689;-78
2022/10/04 16:55:53;;;;;;;5.57;1.70;;;17.10;99.90;;;;;;6278105;22;20178;-75
2022/10/04 16:58:49;;;;;;;2.93;1.60;;;17.00;99.90;;;;;;6274385;22;20209;-71
2022/10/04 17:01:49;;;;;;;3.10;1.50;;;16.90;99.90;;;;;;6274901;22;20181;-70
2022/10/04 17:04:48;;;;;;;1.63;1.10;;;16.80;99.90;;;;;;6271296;22;20655;-72
2022/10/04 17:07:24;;;;;;;5.03;1.20;;;16.70;99.90;;;;;;6275352;22;20175;-72
2022/10/04 17:09:58;;;;;;;3.17;1.50;;;16.60;99.90;;;;;;6274561;22;20645;-74
2022/10/04 17:12:35;;;;;;;4.53;1.80;;;16.40;99.90;;;;;;6274031;22;20199;-71
2022/10/04 17:15:29;;;;;;;4.93;1.80;;;16.40;99.90;;;;;;6275492;22;20204;-72
2022/10/04 17:18:03;;;;;;;6.40;1.30;;;16.20;99.90;;;;;;6275649;22;20224;-74
2022/10/04 17:20:44;;;;;;;3.03;1.23;;;16.10;99.90;;;;;;6274313;22;20179;-75
2022/10/04 17:23:23;;;;;;;2.67;1.30;;;16.00;99.90;;;;;;6274488;22;20281;-70
2022/10/04 17:26:01;;;;;;;1.73;1.30;;;15.90;99.90;;;;;;6274909;22;20185;-70
2022/10/04 17:28:34;;;;;;;2.40;1.70;;;15.80;99.90;;;;;;6274442;22;20257;-70
2022/10/04 17:31:08;;;;;;;2.10;1.37;;;15.60;99.90;;;;;;6274916;22;20179;-70
2022/10/04 17:33:52;;;;;;;3.10;1.60;;;15.50;99.90;;;;;;6274803;22;20222;-70
2022/10/04 17:36:41;;;;;;;3.70;1.77;;;15.40;99.90;;;;;;6276096;22;20207;-71
2022/10/04 17:39:31;;;;;;;3.37;1.70;;;15.40;99.90;;;;;;6276343;22;20209;-70
2022/10/04 17:42:24;;;;;;;4.27;1.80;;;15.40;99.90;;;;;;6276259;22;20182;-70
2022/10/04 17:45:20;;;;;;;4.07;1.63;;;15.30;99.90;;;;;;6276643;22;20175;-70
2022/10/04 17:56:28;;;;;;;5.13;1.63;;;15.20;99.90;;;;;;6276284;22;20317;-71
2022/10/04 17:58:57;;;;;;;2.13;1.50;;;15.10;99.90;;;;;;6276398;22;20229;-71
2022/10/04 18:01:31;;;;;;;2.90;1.73;;;15.00;99.90;;;;;;6276298;22;20179;-71
2022/10/04 18:04:08;;;;;;;2.63;1.40;;;15.00;99.90;;;;;;6275624;22;20221;-71
2022/10/04 18:06:40;;;;;;;2.87;1.80;;;14.90;99.90;;;;;;6276344;22;20546;-72
2022/10/04 18:09:19;;;;;;;3.37;1.87;;;14.90;99.90;;;;;;6276035;22;20175;-71
2022/10/04 18:11:49;;;;;;;2.43;1.50;;;14.80;99.90;;;;;;6276407;22;20179;-71
2022/10/04 18:14:41;;;;;;;2.63;1.60;;;14.80;99.90;;;;;;6275929;22;20175;-71
2022/10/04 18:17:21;;;;;;;3.27;1.90;;;14.70;99.90;;;;;;6275410;22;20174;-71
2022/10/04 18:19:59;;;;;;;3.53;1.80;;;14.70;99.90;;;;;;6275140;22;20183;-71
2022/10/04 18:22:27;;;;;;;4.77;1.97;;;14.60;99.90;;;;;;6274996;22;20257;-71
2022/10/04 18:25:12;;;;;;;3.27;2.07;;;14.60;99.90;;;;;;6275664;22;20179;-71
2022/10/04 18:27:49;;;;;;;4.90;2.30;;;14.60;99.90;;;;;;6275524;22;20261;-72
2022/10/04 18:30:18;;;;;;;3.70;2.00;;;14.50;99.90;;;;;;6276081;22;20175;-71
2022/10/04 18:32:48;;;;;;;5.70;2.20;;;14.50;99.90;;;;;;6275677;22;20674;-71
2022/10/04 18:35:25;;;;;;;3.43;1.80;;;14.50;99.90;;;;;;6275998;22;20189;-71
2022/10/04 18:37:53;;;;;;;5.33;2.00;;;14.50;99.90;;;;;;6275414;22;20210;-71
2022/10/04 18:40:22;;;;;;;4.10;2.13;;;14.40;99.90;;;;;;6275933;22;20232;-71
2022/10/04 18:42:55;;;;;;;3.37;1.90;;;14.40;99.90;;;;;;6275352;22;20524;-71
2022/10/04 18:45:25;;;;;;;8.23;2.83;;;14.30;99.90;;;;;;6275670;22;20178;-71
2022/10/04 18:47:54;;;;;;;3.83;2.43;;;14.30;99.90;;;;;;6275674;22;20189;-71
2022/10/04 18:50:33;;;;;;;4.27;2.03;;;14.30;99.90;;;;;;6276065;22;20258;-71
2022/10/04 18:53:26;;;;;;;2.37;1.83;;;14.20;99.90;;;;;;6277165;22;20194;-71
2022/10/04 18:55:59;;;;;;;2.90;2.07;;;14.30;99.90;;;;;;6277820;22;20186;-70
2022/10/04 19:04:44;;;;;;;6.30;2.40;;;14.40;99.90;;;;;;6205052;22;20371;-70
2022/10/04 19:07:14;;;;;;;6.17;2.20;;;14.60;99.90;;;;;;6277711;22;20543;-71
2022/10/04 19:09:58;;;;;;;3.90;2.13;;;14.60;99.90;;;;;;6278149;22;20244;-71
2022/10/04 19:12:31;;;;;;;7.17;2.00;;;14.70;99.90;;;;;;6277792;22;20194;-70
2022/10/04 19:15:08;;;;;;;3.77;2.27;;;14.80;99.90;;;;;;6277631;22;20649;-70
2022/10/04 19:17:42;;;;;;;7.07;2.90;;;14.80;99.90;;;;;;6277263;22;20653;-71
2022/10/04 19:20:16;;;;;;;6.00;2.27;;;14.90;99.90;;;;;;6277888;22;20175;-71
2022/10/04 19:22:52;;;;;;;2.97;1.87;;;15.00;99.90;;;;;;6277724;22;20277;-70
2022/10/04 19:25:32;;;;;;;5.07;2.33;;;15.10;99.90;;;;;;6278167;22;20174;-71
2022/10/04 19:28:04;;;;;;;5.27;2.23;;;15.10;99.90;;;;;;6277789;22;20185;-71
2022/10/04 19:30:47;;;;;;;4.73;2.33;;;15.20;99.90;;;;;;6277937;22;20175;-71
2022/10/04 19:33:19;;;;;;;3.37;2.17;;;15.20;99.90;;;;;;6277460;22;20206;-70
2022/10/04 19:36:05;;;;;;;6.50;2.77;;;15.30;99.90;;;;;;6277772;22;20255;-71
2022/10/04 19:38:51;;;;;;;4.40;1.97;;;15.30;99.90;;;;;;6277635;22;20206;-71
2022/10/04 19:41:28;;;;;;;3.07;2.00;;;15.40;99.90;;;;;;6277968;22;20178;-71
2022/10/04 19:44:01;;;;;;;3.80;2.33;;;15.40;99.90;;;;;;6277308;22;20194;-71
2022/10/04 19:46:40;;;;;;;3.63;2.00;;;15.40;99.90;;;;;;6277422;22;20270;-70
2022/10/04 19:49:18;;;;;;;4.53;2.23;;;15.50;99.90;;;;;;6277682;22;20206;-71
2022/10/04 19:51:50;;;;;;;3.93;2.33;;;15.50;99.90;;;;;;6277400;22;20174;-71
2022/10/04 19:54:23;;;;;;;5.37;2.47;;;15.50;99.90;;;;;;6278255;22;20178;-71
2022/10/04 19:56:53;;;;;;;5.83;2.37;;;15.60;99.90;;;;;;6277690;22;20181;-71
2022/10/04 19:59:29;;;;;;;4.27;2.10;;;15.60;99.90;;;;;;6277415;22;20516;-71
2022/10/04 20:01:56;;;;;;;3.20;1.90;;;15.60;99.90;;;;;;6277336;22;20210;-71
2022/10/04 20:04:34;;;;;;;6.20;2.47;;;15.60;99.90;;;;;;6277383;22;20178;-71
2022/10/04 20:07:05;;;;;;;8.00;3.60;;;15.60;99.90;;;;;;6277351;22;20507;-71
2022/10/04 20:09:50;;;;;;;4.80;2.60;;;15.60;99.90;;;;;;6277255;22;20185;-71
2022/10/04 20:12:31;;;;;;;6.20;3.30;;;15.60;99.90;;;;;;6277003;22;20686;-70
2022/10/04 20:15:21;;;;;;;5.47;2.90;;;15.70;99.90;;;;;;6277607;22;20174;-71
2022/10/04 20:17:49;;;;;;;6.00;2.03;;;15.70;99.90;;;;;;6277053;22;20493;-70
2022/10/04 20:20:37;;;;;;;4.50;2.20;;;15.80;99.90;;;;;;6277063;22;20626;-70
2022/10/04 20:23:07;;;;;;;7.27;2.90;;;15.80;99.90;;;;;;6276703;22;20580;-71
2022/10/04 20:25:59;;;;;;;3.93;2.30;;;15.80;99.90;;;;;;6276749;22;20186;-71
2022/10/04 20:28:42;;;;;;;4.07;2.10;;;15.70;99.90;;;;;;6277446;22;20179;-71
2022/10/04 20:31:12;;;;;;;5.07;2.10;;;15.70;99.90;;;;;;6276940;22;20723;-72
2022/10/04 20:33:48;;;;;;;4.57;2.53;;;15.80;99.90;;;;;;6276539;22;20198;-71
2022/10/04 20:36:58;;;;;;;4.10;2.00;;;15.70;99.90;;;;;;6277125;22;20175;-72
2022/10/04 20:39:58;;;;;;;6.00;2.40;;;15.70;99.90;;;;;;6246344;22;20210;-71
2022/10/04 20:42:34;;;;;;;3.93;1.87;;;15.70;99.90;;;;;;6276625;22;20198;-71
2022/10/04 20:45:05;;;;;;;3.30;2.00;;;15.70;99.90;;;;;;6277006;22;20257;-71
2022/10/04 20:47:39;;;;;;;2.53;2.00;;;15.80;99.90;;;;;;6276729;22;20225;-71
2022/10/04 20:50:15;;;;;;;5.47;2.17;;;15.80;99.90;;;;;;6276275;22;20178;-71
2022/10/04 20:52:47;;;;;;;3.63;1.97;;;15.80;99.90;;;;;;6276688;22;20278;-70
2022/10/04 20:55:20;;;;;;;5.83;1.83;;;15.80;99.90;;;;;;6276942;22;20482;-70
2022/10/04 20:57:48;;;;;;;3.00;1.83;;;15.80;99.90;;;;;;6276842;22;20627;-70
2022/10/04 21:00:20;;;;;;;2.83;2.03;;;15.80;99.90;;;;;;6276944;22;20206;-71
2022/10/04 21:02:48;;;;;;;4.77;2.90;;;15.80;99.90;;;;;;6276090;22;20598;-72
2022/10/04 21:05:22;;;;;;;6.70;3.70;;;15.90;99.90;;;;;;6276236;22;20190;-71
2022/10/04 21:07:48;;;;;;;7.70;3.53;;;15.80;99.90;;;;;;6276381;22;20179;-71
2022/10/04 21:10:18;;;;;;;13.97;7.13;;;15.90;99.90;;;;;;6276940;22;20178;-71
2022/10/04 21:12:45;;;;;;;6.80;3.53;;;15.80;99.90;;;;;;6276255;22;20199;-71
2022/10/04 21:15:22;;;;;;;7.43;4.17;;;15.80;99.90;;;;;;6276519;22;20179;-71
2022/10/04 21:18:03;;;;;;;7.50;3.67;;;15.80;99.90;;;;;;6276054;22;20210;-71
2022/10/04 21:20:44;;;;;;;5.90;3.53;;;15.90;99.90;;;;;;6276629;22;20523;-71
2022/10/04 21:23:20;;;;;;;3.77;2.30;;;15.90;99.90;;;;;;6276846;22;20194;-70
2022/10/04 21:25:46;;;;;;;4.00;2.50;;;15.90;99.90;;;;;;6277142;22;20261;-70
2022/10/04 21:28:34;;;;;;;7.60;2.57;;;15.90;99.90;;;;;;6277088;22;20175;-71
2022/10/04 21:31:03;;;;;;;4.60;2.93;;;15.90;99.90;;;;;;6276039;22;20596;-71
2022/10/04 21:33:34;;;;;;;10.77;4.87;;;15.90;99.90;;;;;;6276359;22;20201;-70
2022/10/04 21:36:01;;;;;;;7.53;3.07;;;15.90;99.90;;;;;;6276441;22;20185;-70
2022/10/04 21:38:28;;;;;;;6.87;3.57;;;15.80;99.90;;;;;;6276597;22;20181;-71
2022/10/04 21:40:55;;;;;;;9.07;4.83;;;15.70;99.90;;;;;;6276435;22;20175;-71
2022/10/04 21:43:23;;;;;;;5.73;3.40;;;15.80;99.90;;;;;;6276188;22;20202;-71
2022/10/04 21:45:49;;;;;;;7.17;4.00;;;15.80;99.90;;;;;;6276213;22;20653;-71
2022/10/04 21:48:20;;;;;;;9.07;4.70;;;15.90;99.90;;;;;;6276313;22;20183;-71
2022/10/04 21:50:48;;;;;;;6.13;3.13;;;15.80;99.90;;;;;;6276865;22;20179;-70
2022/10/04 21:53:15;;;;;;;5.10;2.73;;;15.80;99.90;;;;;;6276591;22;20202;-70
2022/10/04 21:55:41;;;;;;;4.33;2.63;;;15.90;99.90;;;;;;6276251;22;20261;-70
2022/10/04 21:58:08;;;;;;;8.77;3.87;;;15.90;99.90;;;;;;6276399;22;20174;-71
2022/10/04 22:00:35;;;;;;;4.20;2.70;;;15.90;99.90;;;;;;6276475;22;20289;-71
